sensor_id;sensor_type;location;lat;lon;timestamp;pressure;altitude;pressure_sealevel;temperature;humidity
29331;BME280;16331;52.528;13.342;2022-11-20T00:01:11;156155.69;;;1.54;100.00
29331;BME280;16331;52.528;13.342;2022-11-20T00:03:38;156144.84;;;1.50;100.00
29331;BME280;16331;52.528;13.342;2022-11-20T00:06:08;156207.38;;;1.73;100.00
29331;BME280;16331;52.528;13.342;2022-11-20T00:08:35;156211.44;;;1.75;100.00
29331;BME280;16331;52.528;13.342;2022-11-20T00:11:13;156208.75;;;1.74;100.00
29331;BME280;16331;52.528;13.342;2022-11-20T00:13:41;156199.22;;;1.70;100.00
29331;BME280;16331;52.528;13.342;2022-11-20T00:16:10;156172.03;;;1.60;100.00
29331;BME280;16331;52.528;13.342;2022-11-20T00:18:36;156166.59;;;1.58;100.00
29331;BME280;16331;52.528;13.342;2022-11-20T00:21:10;156161.13;;;1.56;100.00
29331;BME280;16331;52.528;13.342;2022-11-20T00:23:37;156185.59;;;1.65;100.00
29331;BME280;16331;52.528;13.342;2022-11-20T00:26:13;156212.81;;;1.75;100.00
29331;BME280;16331;52.528;13.342;2022-11-20T00:28:43;156211.44;;;1.75;100.00
29331;BME280;16331;52.528;13.342;2022-11-20T00:31:14;156223.75;;;1.79;100.00
29331;BME280;16331;52.528;13.342;2022-11-20T00:33:43;156261.81;;;1.93;100.00
29331;BME280;16331;52.528;13.342;2022-11-20T00:36:18;156222.34;;;1.79;100.00
29331;BME280;16331;52.528;13.342;2022-11-20T00:38:45;156252.28;;;1.90;100.00
29331;BME280;16331;52.528;13.342;2022-11-20T00:41:14;156227.81;;;1.81;100.00
29331;BME280;16331;52.528;13.342;2022-11-20T00:43:41;156271.34;;;1.97;100.00
29331;BME280;16331;52.528;13.342;2022-11-20T00:46:12;156225.06;;;1.80;100.00
29331;BME280;16331;52.528;13.342;2022-11-20T00:48:39;156200.59;;;1.71;100.00
29331;BME280;16331;52.528;13.342;2022-11-20T00:51:05;156220.97;;;1.78;100.00
29331;BME280;16331;52.528;13.342;2022-11-20T00:53:32;156245.50;;;1.87;100.00
29331;BME280;16331;52.528;13.342;2022-11-20T00:56:00;156201.97;;;1.71;100.00
29331;BME280;16331;52.528;13.342;2022-11-20T00:58:32;156185.59;;;1.65;100.00
29331;BME280;16331;52.528;13.342;2022-11-20T01:01:16;156193.75;;;1.68;100.00
29331;BME280;16331;52.528;13.342;2022-11-20T01:03:45;156214.19;;;1.76;100.00
29331;BME280;16331;52.528;13.342;2022-11-20T01:06:34;156210.13;;;1.74;100.00
29331;BME280;16331;52.528;13.342;2022-11-20T01:09:13;156214.19;;;1.76;100.00
29331;BME280;16331;52.528;13.342;2022-11-20T01:11:42;156204.66;;;1.72;100.00
29331;BME280;16331;52.528;13.342;2022-11-20T01:14:15;156215.53;;;1.76;100.00
29331;BME280;16331;52.528;13.342;2022-11-20T01:16:49;156199.22;;;1.70;100.00
29331;BME280;16331;52.528;13.342;2022-11-20T01:19:21;156191.06;;;1.67;100.00
29331;BME280;16331;52.528;13.342;2022-11-20T01:21:50;156264.53;;;1.94;100.00
29331;BME280;16331;52.528;13.342;2022-11-20T01:24:18;156248.22;;;1.88;100.00
29331;BME280;16331;52.528;13.342;2022-11-20T01:26:46;156215.53;;;1.76;100.00
29331;BME280;16331;52.528;13.342;2022-11-20T01:29:19;156207.38;;;1.73;100.00
29331;BME280;16331;52.528;13.342;2022-11-20T01:31:45;156208.75;;;1.74;100.00
29331;BME280;16331;52.528;13.342;2022-11-20T01:34:32;156211.44;;;1.75;100.00
29331;BME280;16331;52.528;13.342;2022-11-20T01:36:58;156199.22;;;1.70;100.00
29331;BME280;16331;52.528;13.342;2022-11-20T01:39:26;156226.44;;;1.80;100.00
29331;BME280;16331;52.528;13.342;2022-11-20T01:41:53;156259.06;;;1.92;100.00
29331;BME280;16331;52.528;13.342;2022-11-20T01:44:56;156234.59;;;1.83;100.00
29331;BME280;16331;52.528;13.342;2022-11-20T01:47:40;156238.69;;;1.85;100.00
29331;BME280;16331;52.528;13.342;2022-11-20T01:52:45;156200.59;;;1.71;100.00
29331;BME280;16331;52.528;13.342;2022-11-20T01:55:19;156143.47;;;1.49;100.00
29331;BME280;16331;52.528;13.342;2022-11-20T01:57:48;156176.13;;;1.62;100.00
29331;BME280;16331;52.528;13.342;2022-11-20T02:00:20;156196.50;;;1.69;100.00
29331;BME280;16331;52.528;13.342;2022-11-20T02:03:02;156181.53;;;1.64;100.00
29331;BME280;16331;52.528;13.342;2022-11-20T02:05:51;156167.91;;;1.59;100.00
29331;BME280;16331;52.528;13.342;2022-11-20T02:08:22;156155.69;;;1.54;100.00
29331;BME280;16331;52.528;13.342;2022-11-20T02:10:49;156223.75;;;1.79;100.00
29331;BME280;16331;52.528;13.342;2022-11-20T02:13:15;156172.03;;;1.60;100.00
29331;BME280;16331;52.528;13.342;2022-11-20T02:16:01;156158.44;;;1.55;100.00
29331;BME280;16331;52.528;13.342;2022-11-20T02:18:27;156159.75;;;1.56;100.00
29331;BME280;16331;52.528;13.342;2022-11-20T02:21:10;156186.97;;;1.66;100.00
29331;BME280;16331;52.528;13.342;2022-11-20T02:24:09;156136.69;;;1.47;100.00
29331;BME280;16331;52.528;13.342;2022-11-20T02:26:41;156128.53;;;1.44;100.00
29331;BME280;16331;52.528;13.342;2022-11-20T02:29:08;156127.16;;;1.43;100.00
29331;BME280;16331;52.528;13.342;2022-11-20T02:31:37;156085.00;;;1.28;100.00
29331;BME280;16331;52.528;13.342;2022-11-20T02:34:06;156099.94;;;1.33;100.00
29331;BME280;16331;52.528;13.342;2022-11-20T02:36:34;156086.31;;;1.28;100.00
29331;BME280;16331;52.528;13.342;2022-11-20T02:39:02;156097.25;;;1.32;100.00
29331;BME280;16331;52.528;13.342;2022-11-20T02:41:36;156133.94;;;1.46;100.00
29331;BME280;16331;52.528;13.342;2022-11-20T02:44:02;156143.47;;;1.49;100.00
29331;BME280;16331;52.528;13.342;2022-11-20T02:46:29;156157.06;;;1.55;100.00
29331;BME280;16331;52.528;13.342;2022-11-20T02:48:56;156154.38;;;1.54;100.00
29331;BME280;16331;52.528;13.342;2022-11-20T02:51:24;156127.16;;;1.43;100.00
29331;BME280;16331;52.528;13.342;2022-11-20T02:53:50;156117.63;;;1.40;100.00
29331;BME280;16331;52.528;13.342;2022-11-20T02:56:16;156144.84;;;1.50;100.00
29331;BME280;16331;52.528;13.342;2022-11-20T02:58:42;156203.28;;;1.72;100.00
29331;BME280;16331;52.528;13.342;2022-11-20T03:01:09;156173.38;;;1.61;100.00
29331;BME280;16331;52.528;13.342;2022-11-20T03:03:35;156158.44;;;1.55;100.00
29331;BME280;16331;52.528;13.342;2022-11-20T03:06:01;156174.75;;;1.61;100.00
29331;BME280;16331;52.528;13.342;2022-11-20T03:08:27;156172.03;;;1.60;100.00
29331;BME280;16331;52.528;13.342;2022-11-20T03:10:54;156195.13;;;1.69;100.00
29331;BME280;16331;52.528;13.342;2022-11-20T03:13:20;156177.44;;;1.62;100.00
29331;BME280;16331;52.528;13.342;2022-11-20T03:15:46;156238.69;;;1.85;100.00
29331;BME280;16331;52.528;13.342;2022-11-20T03:18:12;156246.81;;;1.88;100.00
29331;BME280;16331;52.528;13.342;2022-11-20T03:20:39;156242.75;;;1.86;100.00
29331;BME280;16331;52.528;13.342;2022-11-20T03:23:05;156223.75;;;1.79;100.00
29331;BME280;16331;52.528;13.342;2022-11-20T03:25:31;156256.38;;;1.91;100.00
29331;BME280;16331;52.528;13.342;2022-11-20T03:27:57;156230.53;;;1.82;100.00
29331;BME280;16331;52.528;13.342;2022-11-20T03:30:23;156189.69;;;1.67;100.00
29331;BME280;16331;52.528;13.342;2022-11-20T03:32:53;156151.59;;;1.52;100.00
29331;BME280;16331;52.528;13.342;2022-11-20T03:35:20;156167.91;;;1.59;100.00
29331;BME280;16331;52.528;13.342;2022-11-20T03:37:46;156154.38;;;1.54;100.00
29331;BME280;16331;52.528;13.342;2022-11-20T03:40:12;156139.38;;;1.48;100.00
29331;BME280;16331;52.528;13.342;2022-11-20T03:42:38;156114.91;;;1.39;100.00
29331;BME280;16331;52.528;13.342;2022-11-20T03:45:15;156114.91;;;1.39;100.00
29331;BME280;16331;52.528;13.342;2022-11-20T03:47:42;156132.59;;;1.45;100.00
29331;BME280;16331;52.528;13.342;2022-11-20T03:50:09;156139.38;;;1.48;100.00
29331;BME280;16331;52.528;13.342;2022-11-20T03:52:36;156125.78;;;1.43;100.00
29331;BME280;16331;52.528;13.342;2022-11-20T03:55:02;156112.16;;;1.38;100.00
29331;BME280;16331;52.528;13.342;2022-11-20T03:57:28;156102.63;;;1.34;100.00
29331;BME280;16331;52.528;13.342;2022-11-20T03:59:54;156136.69;;;1.47;100.00
29331;BME280;16331;52.528;13.342;2022-11-20T04:02:20;156117.63;;;1.40;100.00
29331;BME280;16331;52.528;13.342;2022-11-20T04:04:47;156090.41;;;1.30;100.00
29331;BME280;16331;52.528;13.342;2022-11-20T04:07:13;156090.41;;;1.30;100.00
29331;BME280;16331;52.528;13.342;2022-11-20T04:09:39;156101.31;;;1.34;100.00
29331;BME280;16331;52.528;13.342;2022-11-20T04:12:07;156105.38;;;1.35;100.00
29331;BME280;16331;52.528;13.342;2022-11-20T04:14:33;156067.31;;;1.21;100.00
29331;BME280;16331;52.528;13.342;2022-11-20T04:16:59;156042.81;;;1.12;100.00
29331;BME280;16331;52.528;13.342;2022-11-20T04:19:25;156046.91;;;1.14;100.00
29331;BME280;16331;52.528;13.342;2022-11-20T04:21:51;156059.19;;;1.18;100.00
29331;BME280;16331;52.528;13.342;2022-11-20T04:24:17;156075.47;;;1.24;100.00
29331;BME280;16331;52.528;13.342;2022-11-20T04:26:43;156079.56;;;1.26;100.00
29331;BME280;16331;52.528;13.342;2022-11-20T04:29:11;156105.38;;;1.35;100.00
29331;BME280;16331;52.528;13.342;2022-11-20T04:31:37;156136.69;;;1.47;100.00
29331;BME280;16331;52.528;13.342;2022-11-20T04:34:05;156157.06;;;1.55;100.00
29331;BME280;16331;52.528;13.342;2022-11-20T04:36:32;156169.28;;;1.59;100.00
29331;BME280;16331;52.528;13.342;2022-11-20T04:39:01;156180.19;;;1.63;100.00
29331;BME280;16331;52.528;13.342;2022-11-20T04:41:31;156163.84;;;1.57;100.00
29331;BME280;16331;52.528;13.342;2022-11-20T04:44:00;156166.59;;;1.58;100.00
29331;BME280;16331;52.528;13.342;2022-11-20T04:46:31;156143.47;;;1.49;100.00
29331;BME280;16331;52.528;13.342;2022-11-20T04:48:58;156104.00;;;1.35;100.00
29331;BME280;16331;52.528;13.342;2022-11-20T04:51:25;156112.16;;;1.38;100.00
29331;BME280;16331;52.528;13.342;2022-11-20T04:53:51;156116.25;;;1.39;100.00
29331;BME280;16331;52.528;13.342;2022-11-20T04:56:18;156106.75;;;1.36;100.00
29331;BME280;16331;52.528;13.342;2022-11-20T04:58:45;156102.63;;;1.34;100.00
29331;BME280;16331;52.528;13.342;2022-11-20T05:01:14;156131.22;;;1.45;100.00
29331;BME280;16331;52.528;13.342;2022-11-20T05:03:42;156121.69;;;1.41;100.00
29331;BME280;16331;52.528;13.342;2022-11-20T05:06:13;156123.06;;;1.42;100.00
29331;BME280;16331;52.528;13.342;2022-11-20T05:08:40;156123.06;;;1.42;100.00
29331;BME280;16331;52.528;13.342;2022-11-20T05:11:12;156132.59;;;1.45;100.00
29331;BME280;16331;52.528;13.342;2022-11-20T05:13:39;156106.75;;;1.36;100.00
29331;BME280;16331;52.528;13.342;2022-11-20T05:16:11;156108.09;;;1.36;100.00
29331;BME280;16331;52.528;13.342;2022-11-20T05:18:39;156106.75;;;1.36;100.00
29331;BME280;16331;52.528;13.342;2022-11-20T05:21:06;156123.06;;;1.42;100.00
29331;BME280;16331;52.528;13.342;2022-11-20T05:23:33;156131.22;;;1.45;100.00
29331;BME280;16331;52.528;13.342;2022-11-20T05:26:00;156142.09;;;1.49;100.00
29331;BME280;16331;52.528;13.342;2022-11-20T05:28:27;156186.97;;;1.66;100.00
29331;BME280;16331;52.528;13.342;2022-11-20T05:30:54;156147.53;;;1.51;100.00
29331;BME280;16331;52.528;13.342;2022-11-20T05:33:20;156188.34;;;1.66;100.00
29331;BME280;16331;52.528;13.342;2022-11-20T05:35:47;156165.22;;;1.58;100.00
29331;BME280;16331;52.528;13.342;2022-11-20T05:38:14;156170.66;;;1.60;100.00
29331;BME280;16331;52.528;13.342;2022-11-20T05:40:40;156144.84;;;1.50;100.00
29331;BME280;16331;52.528;13.342;2022-11-20T05:43:06;156177.44;;;1.62;100.00
29331;BME280;16331;52.528;13.342;2022-11-20T05:45:33;156158.44;;;1.55;100.00
29331;BME280;16331;52.528;13.342;2022-11-20T05:47:59;156140.75;;;1.48;100.00
29331;BME280;16331;52.528;13.342;2022-11-20T05:50:26;156133.94;;;1.46;100.00
29331;BME280;16331;52.528;13.342;2022-11-20T05:52:53;156155.69;;;1.54;100.00
29331;BME280;16331;52.528;13.342;2022-11-20T05:55:19;156178.81;;;1.63;100.00
29331;BME280;16331;52.528;13.342;2022-11-20T05:57:45;156185.59;;;1.65;100.00
29331;BME280;16331;52.528;13.342;2022-11-20T06:00:14;156191.06;;;1.67;100.00
29331;BME280;16331;52.528;13.342;2022-11-20T06:02:41;156210.13;;;1.74;100.00
29331;BME280;16331;52.528;13.342;2022-11-20T06:05:07;156193.75;;;1.68;100.00
29331;BME280;16331;52.528;13.342;2022-11-20T06:07:34;156216.91;;;1.77;100.00
29331;BME280;16331;52.528;13.342;2022-11-20T06:10:00;156223.75;;;1.79;100.00
29331;BME280;16331;52.528;13.342;2022-11-20T06:12:27;156212.81;;;1.75;100.00
29331;BME280;16331;52.528;13.342;2022-11-20T06:14:53;156188.34;;;1.66;100.00
29331;BME280;16331;52.528;13.342;2022-11-20T06:17:19;156211.44;;;1.75;100.00
29331;BME280;16331;52.528;13.342;2022-11-20T06:19:45;156201.97;;;1.71;100.00
29331;BME280;16331;52.528;13.342;2022-11-20T06:22:11;156201.97;;;1.71;100.00
29331;BME280;16331;52.528;13.342;2022-11-20T06:24:37;156208.75;;;1.74;100.00
29331;BME280;16331;52.528;13.342;2022-11-20T06:27:03;156291.75;;;2.04;100.00
29331;BME280;16331;52.528;13.342;2022-11-20T06:29:30;156226.44;;;1.80;100.00
29331;BME280;16331;52.528;13.342;2022-11-20T06:31:57;156184.28;;;1.65;100.00
29331;BME280;16331;52.528;13.342;2022-11-20T06:34:23;156172.03;;;1.60;100.00
29331;BME280;16331;52.528;13.342;2022-11-20T06:36:49;156178.81;;;1.63;100.00
29331;BME280;16331;52.528;13.342;2022-11-20T06:39:15;156138.00;;;1.47;100.00
29331;BME280;16331;52.528;13.342;2022-11-20T06:41:41;156155.69;;;1.54;100.00
29331;BME280;16331;52.528;13.342;2022-11-20T06:44:07;156176.13;;;1.62;100.00
29331;BME280;16331;52.528;13.342;2022-11-20T06:46:33;156165.22;;;1.58;100.00
29331;BME280;16331;52.528;13.342;2022-11-20T06:48:59;156142.09;;;1.49;100.00
29331;BME280;16331;52.528;13.342;2022-11-20T06:51:25;156188.34;;;1.66;100.00
29331;BME280;16331;52.528;13.342;2022-11-20T06:53:52;156172.03;;;1.60;100.00
29331;BME280;16331;52.528;13.342;2022-11-20T06:56:18;156186.97;;;1.66;100.00
29331;BME280;16331;52.528;13.342;2022-11-20T06:58:44;156204.66;;;1.72;100.00
29331;BME280;16331;52.528;13.342;2022-11-20T07:01:13;156214.19;;;1.76;100.00
29331;BME280;16331;52.528;13.342;2022-11-20T07:03:41;156185.59;;;1.65;100.00
29331;BME280;16331;52.528;13.342;2022-11-20T07:06:08;156203.28;;;1.72;100.00
29331;BME280;16331;52.528;13.342;2022-11-20T07:08:34;156218.28;;;1.77;100.00
29331;BME280;16331;52.528;13.342;2022-11-20T07:11:03;156230.53;;;1.82;100.00
29331;BME280;16331;52.528;13.342;2022-11-20T07:13:30;156233.22;;;1.83;100.00
29331;BME280;16331;52.528;13.342;2022-11-20T07:16:00;156165.22;;;1.58;100.00
29331;BME280;16331;52.528;13.342;2022-11-20T07:18:27;156180.19;;;1.63;100.00
29331;BME280;16331;52.528;13.342;2022-11-20T07:20:53;156152.97;;;1.53;100.00
29331;BME280;16331;52.528;13.342;2022-11-20T07:23:20;156196.50;;;1.69;100.00
29331;BME280;16331;52.528;13.342;2022-11-20T07:25:46;156154.38;;;1.54;100.00
29331;BME280;16331;52.528;13.342;2022-11-20T07:28:12;156176.13;;;1.62;100.00
29331;BME280;16331;52.528;13.342;2022-11-20T07:30:39;156193.75;;;1.68;100.00
29331;BME280;16331;52.528;13.342;2022-11-20T07:33:05;156152.97;;;1.53;100.00
29331;BME280;16331;52.528;13.342;2022-11-20T07:35:31;156128.53;;;1.44;100.00
29331;BME280;16331;52.528;13.342;2022-11-20T07:37:58;156128.53;;;1.44;100.00
29331;BME280;16331;52.528;13.342;2022-11-20T07:40:25;156142.09;;;1.49;100.00
29331;BME280;16331;52.528;13.342;2022-11-20T07:42:54;156147.53;;;1.51;100.00
29331;BME280;16331;52.528;13.342;2022-11-20T07:45:22;156087.72;;;1.29;100.00
29331;BME280;16331;52.528;13.342;2022-11-20T07:47:49;156095.84;;;1.32;100.00
29331;BME280;16331;52.528;13.342;2022-11-20T07:50:15;156124.41;;;1.42;100.00
29331;BME280;16331;52.528;13.342;2022-11-20T07:52:42;156128.53;;;1.44;100.00
29331;BME280;16331;52.528;13.342;2022-11-20T07:55:09;156080.94;;;1.26;100.00
29331;BME280;16331;52.528;13.342;2022-11-20T07:57:36;156086.31;;;1.28;100.00
29331;BME280;16331;52.528;13.342;2022-11-20T08:00:04;156071.41;;;1.23;100.00
29331;BME280;16331;52.528;13.342;2022-11-20T08:02:30;156067.31;;;1.21;100.00
29331;BME280;16331;52.528;13.342;2022-11-20T08:04:56;156080.94;;;1.26;100.00
29331;BME280;16331;52.528;13.342;2022-11-20T08:07:22;156065.94;;;1.21;100.00
29331;BME280;16331;52.528;13.342;2022-11-20T08:09:48;156101.31;;;1.34;100.00
29331;BME280;16331;52.528;13.342;2022-11-20T08:12:19;156097.25;;;1.32;100.00
29331;BME280;16331;52.528;13.342;2022-11-20T08:15:05;156114.91;;;1.39;100.00
29331;BME280;16331;52.528;13.342;2022-11-20T08:17:31;156136.69;;;1.47;100.00
29331;BME280;16331;52.528;13.342;2022-11-20T08:19:58;156114.91;;;1.39;100.00
29331;BME280;16331;52.528;13.342;2022-11-20T08:22:24;156106.75;;;1.36;100.00
29331;BME280;16331;52.528;13.342;2022-11-20T08:24:52;156121.69;;;1.41;100.00
29331;BME280;16331;52.528;13.342;2022-11-20T08:27:18;156105.38;;;1.35;100.00
29331;BME280;16331;52.528;13.342;2022-11-20T08:29:44;156112.16;;;1.38;100.00
29331;BME280;16331;52.528;13.342;2022-11-20T08:32:10;156101.31;;;1.34;100.00
29331;BME280;16331;52.528;13.342;2022-11-20T08:34:36;156061.88;;;1.19;100.00
29331;BME280;16331;52.528;13.342;2022-11-20T08:37:03;156055.03;;;1.17;100.00
29331;BME280;16331;52.528;13.342;2022-11-20T08:39:29;156067.31;;;1.21;100.00
29331;BME280;16331;52.528;13.342;2022-11-20T08:41:55;156082.25;;;1.27;100.00
29331;BME280;16331;52.528;13.342;2022-11-20T08:44:21;156109.47;;;1.37;100.00
29331;BME280;16331;52.528;13.342;2022-11-20T08:46:47;156105.38;;;1.35;100.00
29331;BME280;16331;52.528;13.342;2022-11-20T08:49:14;156125.78;;;1.43;100.00
29331;BME280;16331;52.528;13.342;2022-11-20T08:51:40;156163.84;;;1.57;100.00
29331;BME280;16331;52.528;13.342;2022-11-20T08:54:07;156218.28;;;1.77;100.00
29331;BME280;16331;52.528;13.342;2022-11-20T08:56:33;156218.28;;;1.77;100.00
29331;BME280;16331;52.528;13.342;2022-11-20T08:59:00;156259.06;;;1.92;100.00
29331;BME280;16331;52.528;13.342;2022-11-20T09:01:26;156254.97;;;1.91;100.00
29331;BME280;16331;52.528;13.342;2022-11-20T09:03:54;156359.78;;;2.29;100.00
29331;BME280;16331;52.528;13.342;2022-11-20T09:06:21;156353.00;;;2.27;100.00
29331;BME280;16331;52.528;13.342;2022-11-20T09:08:47;156299.91;;;2.07;100.00
29331;BME280;16331;52.528;13.342;2022-11-20T09:11:13;156241.44;;;1.86;100.00
29331;BME280;16331;52.528;13.342;2022-11-20T09:13:39;156214.19;;;1.76;100.00
29331;BME280;16331;52.528;13.342;2022-11-20T09:16:08;156260.44;;;1.93;100.00
29331;BME280;16331;52.528;13.342;2022-11-20T09:18:35;156289.06;;;2.03;100.00
29331;BME280;16331;52.528;13.342;2022-11-20T09:21:09;156282.22;;;2.01;100.00
29331;BME280;16331;52.528;13.342;2022-11-20T09:23:37;156264.53;;;1.94;100.00
29331;BME280;16331;52.528;13.342;2022-11-20T09:26:04;156261.81;;;1.93;100.00
29331;BME280;16331;52.528;13.342;2022-11-20T09:28:31;156248.22;;;1.88;100.00
29331;BME280;16331;52.528;13.342;2022-11-20T09:30:58;156265.91;;;1.95;100.00
29331;BME280;16331;52.528;13.342;2022-11-20T09:33:25;156212.81;;;1.75;100.00
29331;BME280;16331;52.528;13.342;2022-11-20T09:35:51;156229.13;;;1.81;100.00
29331;BME280;16331;52.528;13.342;2022-11-20T09:38:18;156248.22;;;1.88;100.00
29331;BME280;16331;52.528;13.342;2022-11-20T09:40:57;156283.59;;;2.01;100.00
29331;BME280;16331;52.528;13.342;2022-11-20T09:43:32;156291.75;;;2.04;100.00
29331;BME280;16331;52.528;13.342;2022-11-20T09:46:24;156313.53;;;2.12;100.00
29331;BME280;16331;52.528;13.342;2022-11-20T09:49:00;156382.94;;;2.38;100.00
29331;BME280;16331;52.528;13.342;2022-11-20T09:52:00;156387.03;;;2.39;100.00
29331;BME280;16331;52.528;13.342;2022-11-20T09:54:33;156357.06;;;2.28;100.00
29331;BME280;16331;52.528;13.342;2022-11-20T09:57:11;156397.88;;;2.43;100.00
29331;BME280;16331;52.528;13.342;2022-11-20T09:59:50;156393.81;;;2.42;100.00
29331;BME280;16331;52.528;13.342;2022-11-20T10:02:33;156425.13;;;2.53;100.00
29331;BME280;16331;52.528;13.342;2022-11-20T10:08:10;156374.78;;;2.35;100.00
29331;BME280;16331;52.528;13.342;2022-11-20T10:10:48;156339.38;;;2.22;100.00
29331;BME280;16331;52.528;13.342;2022-11-20T10:16:24;156308.06;;;2.10;100.00
29331;BME280;16331;52.528;13.342;2022-11-20T10:19:01;156314.91;;;2.13;100.00
29331;BME280;16331;52.528;13.342;2022-11-20T10:22:00;156353.00;;;2.27;100.00
29331;BME280;16331;52.528;13.342;2022-11-20T10:27:22;156408.81;;;2.47;100.00
29331;BME280;16331;52.528;13.342;2022-11-20T10:30:11;156388.41;;;2.40;100.00
29331;BME280;16331;52.528;13.342;2022-11-20T10:33:03;156373.41;;;2.34;100.00
29331;BME280;16331;52.528;13.342;2022-11-20T10:35:35;156370.69;;;2.33;100.00
29331;BME280;16331;52.528;13.342;2022-11-20T10:38:09;156387.03;;;2.39;100.00
29331;BME280;16331;52.528;13.342;2022-11-20T10:40:51;156402.03;;;2.45;100.00
29331;BME280;16331;52.528;13.342;2022-11-20T10:43:34;156425.13;;;2.53;100.00
29331;BME280;16331;52.528;13.342;2022-11-20T10:46:17;156545.00;;;2.97;100.00
29331;BME280;16331;52.528;13.342;2022-11-20T10:48:46;156485.03;;;2.75;100.00
29331;BME280;16331;52.528;13.342;2022-11-20T10:51:31;156457.81;;;2.65;100.00
29331;BME280;16331;52.528;13.342;2022-11-20T10:54:13;156452.38;;;2.63;100.00
29331;BME280;16331;52.528;13.342;2022-11-20T10:56:47;156470.06;;;2.70;100.00
29331;BME280;16331;52.528;13.342;2022-11-20T10:59:38;156539.53;;;2.95;100.00
29331;BME280;16331;52.528;13.342;2022-11-20T11:02:20;156528.59;;;2.91;100.00
29331;BME280;16331;52.528;13.342;2022-11-20T11:04:54;156636.25;;;3.31;100.00
29331;BME280;16331;52.528;13.342;2022-11-20T11:07:33;156771.19;;;3.81;100.00
29331;BME280;16331;52.528;13.342;2022-11-20T11:10:01;156850.22;;;4.10;100.00
29331;BME280;16331;52.528;13.342;2022-11-20T11:12:28;156797.09;;;3.90;100.00
29331;BME280;16331;52.528;13.342;2022-11-20T11:14:56;156675.78;;;3.46;100.00
29331;BME280;16331;52.528;13.342;2022-11-20T11:17:32;156602.16;;;3.19;100.00
29331;BME280;16331;52.528;13.342;2022-11-20T11:20:15;156564.03;;;3.05;100.00
29331;BME280;16331;52.528;13.342;2022-11-20T11:22:47;156502.72;;;2.82;100.00
29331;BME280;16331;52.528;13.342;2022-11-20T11:25:32;156540.91;;;2.96;100.00
29331;BME280;16331;52.528;13.342;2022-11-20T11:28:04;156566.78;;;3.06;100.00
29331;BME280;16331;52.528;13.342;2022-11-20T11:30:44;156609.00;;;3.21;100.00
29331;BME280;16331;52.528;13.342;2022-11-20T11:33:21;156606.28;;;3.20;100.00
29331;BME280;16331;52.528;13.342;2022-11-20T11:36:01;156594.00;;;3.16;100.00
29331;BME280;16331;52.528;13.342;2022-11-20T11:38:42;156609.00;;;3.21;100.00
29331;BME280;16331;52.528;13.342;2022-11-20T11:41:24;156583.13;;;3.12;100.00
29331;BME280;16331;52.528;13.342;2022-11-20T11:43:55;156547.69;;;2.98;100.00
29331;BME280;16331;52.528;13.342;2022-11-20T11:46:53;156513.66;;;2.86;100.00
29331;BME280;16331;52.528;13.342;2022-11-20T11:49:20;156519.13;;;2.88;100.00
29331;BME280;16331;52.528;13.342;2022-11-20T11:54:43;156431.97;;;2.56;100.00
29331;BME280;16331;52.528;13.342;2022-11-20T12:00:05;156489.09;;;2.77;100.00
29331;BME280;16331;52.528;13.342;2022-11-20T12:02:56;156545.00;;;2.97;100.00
29331;BME280;16331;52.528;13.342;2022-11-20T12:05:50;156545.00;;;2.97;100.00
29331;BME280;16331;52.528;13.342;2022-11-20T12:08:25;156596.75;;;3.17;100.00
29331;BME280;16331;52.528;13.342;2022-11-20T12:11:19;156678.50;;;3.47;100.00
29331;BME280;16331;52.528;13.342;2022-11-20T12:13:53;156591.28;;;3.15;100.00
29331;BME280;16331;52.528;13.342;2022-11-20T12:16:21;156599.47;;;3.18;100.00
29331;BME280;16331;52.528;13.342;2022-11-20T12:18:52;156583.13;;;3.12;100.00
29331;BME280;16331;52.528;13.342;2022-11-20T12:21:43;156555.84;;;3.02;100.00
29331;BME280;16331;52.528;13.342;2022-11-20T12:38:58;156628.03;;;3.28;100.00
29331;BME280;16331;52.528;13.342;2022-11-20T12:41:51;156569.50;;;3.07;100.00
29331;BME280;16331;52.528;13.342;2022-11-20T12:53:33;156768.44;;;3.80;100.00
29331;BME280;16331;52.528;13.342;2022-11-20T13:01:52;156885.69;;;4.23;100.00
29331;BME280;16331;52.528;13.342;2022-11-20T13:07:01;156686.66;;;3.50;100.00
29331;BME280;16331;52.528;13.342;2022-11-20T13:09:28;156776.59;;;3.83;100.00
29331;BME280;16331;52.528;13.342;2022-11-20T13:15:04;156731.66;;;3.66;100.00
29331;BME280;16331;52.528;13.342;2022-11-20T13:20:18;156844.81;;;4.08;100.00
29331;BME280;16331;52.528;13.342;2022-11-20T13:22:47;156825.69;;;4.01;100.00
29331;BME280;16331;52.528;13.342;2022-11-20T13:25:31;156739.81;;;3.69;100.00
29331;BME280;16331;52.528;13.342;2022-11-20T13:28:00;156820.22;;;3.99;100.00
29331;BME280;16331;52.528;13.342;2022-11-20T13:30:27;156842.03;;;4.07;100.00
29331;BME280;16331;52.528;13.342;2022-11-20T13:32:58;156703.00;;;3.56;100.00
29331;BME280;16331;52.528;13.342;2022-11-20T13:35:33;156664.84;;;3.42;100.00
29331;BME280;16331;52.528;13.342;2022-11-20T13:40:28;156588.59;;;3.14;100.00
29331;BME280;16331;52.528;13.342;2022-11-20T13:43:02;156585.81;;;3.13;100.00
29331;BME280;16331;52.528;13.342;2022-11-20T13:45:31;156596.75;;;3.17;100.00
29331;BME280;16331;52.528;13.342;2022-11-20T13:48:19;156576.28;;;3.09;100.00
29331;BME280;16331;52.528;13.342;2022-11-20T13:59:46;156505.50;;;2.83;100.00
29331;BME280;16331;52.528;13.342;2022-11-20T14:02:20;156564.03;;;3.05;100.00
29331;BME280;16331;52.528;13.342;2022-11-20T14:04:52;156564.03;;;3.05;100.00